sensor_id;sensor_type;location;lat;lon;timestamp;temperature;humidity
54622;DHT22;40521;53.146;6.556;2022-12-18T00:01:18;-3.80;99.90
54622;DHT22;40521;53.146;6.556;2022-12-18T00:03:44;-3.70;99.90
54622;DHT22;40521;53.146;6.556;2022-12-18T00:06:09;-1.70;99.90
54622;DHT22;40521;53.146;6.556;2022-12-18T00:08:35;-1.10;99.90
54622;DHT22;40521;53.146;6.556;2022-12-18T00:11:04;-3.80;99.90
54622;DHT22;40521;53.146;6.556;2022-12-18T00:13:30;-3.70;99.90
54622;DHT22;40521;53.146;6.556;2022-12-18T00:16:00;-3.80;99.90
54622;DHT22;40521;53.146;6.556;2022-12-18T00:18:26;-3.70;99.90
54622;DHT22;40521;53.146;6.556;2022-12-18T00:20:52;-3.80;99.90
54622;DHT22;40521;53.146;6.556;2022-12-18T00:23:17;-3.70;99.90
54622;DHT22;40521;53.146;6.556;2022-12-18T00:25:43;-0.60;99.90
54622;DHT22;40521;53.146;6.556;2022-12-18T00:28:08;-3.90;99.90
54622;DHT22;40521;53.146;6.556;2022-12-18T00:30:34;-1.40;99.90
54622;DHT22;40521;53.146;6.556;2022-12-18T00:32:59;-1.60;99.90
54622;DHT22;40521;53.146;6.556;2022-12-18T00:35:25;-4.00;99.90
54622;DHT22;40521;53.146;6.556;2022-12-18T00:37:51;-1.30;99.90
54622;DHT22;40521;53.146;6.556;2022-12-18T00:40:16;-4.00;99.90
54622;DHT22;40521;53.146;6.556;2022-12-18T00:42:42;-3.90;99.90
54622;DHT22;40521;53.146;6.556;2022-12-18T00:45:27;-4.00;99.90
54622;DHT22;40521;53.146;6.556;2022-12-18T00:47:53;-4.00;99.90
54622;DHT22;40521;53.146;6.556;2022-12-18T00:50:19;-4.20;99.90
54622;DHT22;40521;53.146;6.556;2022-12-18T00:52:44;-4.20;99.90
54622;DHT22;40521;53.146;6.556;2022-12-18T00:55:10;-2.50;99.90
54622;DHT22;40521;53.146;6.556;2022-12-18T00:57:35;-4.20;99.90
54622;DHT22;40521;53.146;6.556;2022-12-18T01:00:02;-4.10;99.90
54622;DHT22;40521;53.146;6.556;2022-12-18T01:02:28;-4.20;99.90
54622;DHT22;40521;53.146;6.556;2022-12-18T01:04:53;-1.10;99.90
54622;DHT22;40521;53.146;6.556;2022-12-18T01:07:19;-2.00;99.90
54622;DHT22;40521;53.146;6.556;2022-12-18T01:09:45;-4.20;99.90
54622;DHT22;40521;53.146;6.556;2022-12-18T01:12:11;-1.10;99.90
54622;DHT22;40521;53.146;6.556;2022-12-18T01:14:36;-1.50;99.90
54622;DHT22;40521;53.146;6.556;2022-12-18T01:17:03;-3.50;99.90
54622;DHT22;40521;53.146;6.556;2022-12-18T01:19:29;-4.40;99.90
54622;DHT22;40521;53.146;6.556;2022-12-18T01:21:54;-4.40;99.90
54622;DHT22;40521;53.146;6.556;2022-12-18T01:24:20;-4.40;99.90
54622;DHT22;40521;53.146;6.556;2022-12-18T01:26:46;-3.60;99.90
54622;DHT22;40521;53.146;6.556;2022-12-18T01:29:11;-4.50;99.90
54622;DHT22;40521;53.146;6.556;2022-12-18T01:31:37;-4.60;99.90
54622;DHT22;40521;53.146;6.556;2022-12-18T01:34:03;-4.70;99.90
54622;DHT22;40521;53.146;6.556;2022-12-18T01:36:33;-1.80;99.90
54622;DHT22;40521;53.146;6.556;2022-12-18T01:39:03;-2.10;99.90
54622;DHT22;40521;53.146;6.556;2022-12-18T01:41:30;-4.90;99.90
54622;DHT22;40521;53.146;6.556;2022-12-18T01:47:01;-4.70;99.90
54622;DHT22;40521;53.146;6.556;2022-12-18T01:49:27;-3.60;99.90
54622;DHT22;40521;53.146;6.556;2022-12-18T01:51:52;-1.50;99.90
54622;DHT22;40521;53.146;6.556;2022-12-18T01:54:18;-5.00;99.90
54622;DHT22;40521;53.146;6.556;2022-12-18T01:56:43;-2.10;99.90
54622;DHT22;40521;53.146;6.556;2022-12-18T01:59:09;-5.20;99.90
54622;DHT22;40521;53.146;6.556;2022-12-18T02:01:36;-4.80;99.90
54622;DHT22;40521;53.146;6.556;2022-12-18T02:04:22;-2.20;99.90
54622;DHT22;40521;53.146;6.556;2022-12-18T02:09:40;-5.20;99.90
54622;DHT22;40521;53.146;6.556;2022-12-18T02:14:45;-5.20;99.90
54622;DHT22;40521;53.146;6.556;2022-12-18T02:17:13;-5.30;99.90
54622;DHT22;40521;53.146;6.556;2022-12-18T02:22:11;-5.30;99.90
54622;DHT22;40521;53.146;6.556;2022-12-18T02:27:32;-5.40;99.90
54622;DHT22;40521;53.146;6.556;2022-12-18T02:29:59;-5.40;99.90
54622;DHT22;40521;53.146;6.556;2022-12-18T02:32:27;-5.50;99.90
54622;DHT22;40521;53.146;6.556;2022-12-18T02:34:54;-5.70;99.90
54622;DHT22;40521;53.146;6.556;2022-12-18T02:37:21;-5.60;99.90
54622;DHT22;40521;53.146;6.556;2022-12-18T02:39:47;-2.10;99.90
54622;DHT22;40521;53.146;6.556;2022-12-18T02:42:14;-5.60;99.90
54622;DHT22;40521;53.146;6.556;2022-12-18T02:44:47;-5.60;99.90
54622;DHT22;40521;53.146;6.556;2022-12-18T02:47:13;-5.60;99.90
54622;DHT22;40521;53.146;6.556;2022-12-18T02:54:51;-5.80;99.90
54622;DHT22;40521;53.146;6.556;2022-12-18T03:00:03;-5.70;99.90
54622;DHT22;40521;53.146;6.556;2022-12-18T03:05:03;-5.60;99.90
54622;DHT22;40521;53.146;6.556;2022-12-18T03:10:13;-5.70;99.90
54622;DHT22;40521;53.146;6.556;2022-12-18T03:12:44;-5.80;99.90
54622;DHT22;40521;53.146;6.556;2022-12-18T03:15:19;-5.90;99.90
54622;DHT22;40521;53.146;6.556;2022-12-18T03:17:52;-5.80;99.90
54622;DHT22;40521;53.146;6.556;2022-12-18T03:20:21;-5.80;99.90
54622;DHT22;40521;53.146;6.556;2022-12-18T03:22:49;-5.80;99.90
54622;DHT22;40521;53.146;6.556;2022-12-18T03:25:16;-5.90;99.90
54622;DHT22;40521;53.146;6.556;2022-12-18T03:27:44;-5.90;99.90
54622;DHT22;40521;53.146;6.556;2022-12-18T03:30:12;-5.80;99.90
54622;DHT22;40521;53.146;6.556;2022-12-18T03:32:39;-5.90;99.90
54622;DHT22;40521;53.146;6.556;2022-12-18T03:35:06;-6.00;99.90
54622;DHT22;40521;53.146;6.556;2022-12-18T03:37:32;-5.90;99.90
54622;DHT22;40521;53.146;6.556;2022-12-18T03:39:58;-6.10;99.90
54622;DHT22;40521;53.146;6.556;2022-12-18T03:44:53;-6.00;99.90
54622;DHT22;40521;53.146;6.556;2022-12-18T03:47:27;-6.00;99.90
54622;DHT22;40521;53.146;6.556;2022-12-18T03:55:08;-6.00;99.90
54622;DHT22;40521;53.146;6.556;2022-12-18T03:57:35;-6.10;99.90
54622;DHT22;40521;53.146;6.556;2022-12-18T04:00:04;-6.00;99.90
54622;DHT22;40521;53.146;6.556;2022-12-18T04:02:31;-6.10;99.90
54622;DHT22;40521;53.146;6.556;2022-12-18T04:04:58;-6.10;99.90
54622;DHT22;40521;53.146;6.556;2022-12-18T04:07:25;-6.10;99.90
54622;DHT22;40521;53.146;6.556;2022-12-18T04:09:51;-6.10;99.90
54622;DHT22;40521;53.146;6.556;2022-12-18T04:12:18;-6.10;99.90
54622;DHT22;40521;53.146;6.556;2022-12-18T04:14:44;-6.00;99.90
54622;DHT22;40521;53.146;6.556;2022-12-18T04:17:10;-6.20;99.90
54622;DHT22;40521;53.146;6.556;2022-12-18T04:19:35;-6.20;99.90
54622;DHT22;40521;53.146;6.556;2022-12-18T04:22:01;-6.20;99.90
54622;DHT22;40521;53.146;6.556;2022-12-18T04:24:27;-6.20;99.90
54622;DHT22;40521;53.146;6.556;2022-12-18T04:26:52;-6.30;99.90
54622;DHT22;40521;53.146;6.556;2022-12-18T04:29:18;-6.20;99.90
54622;DHT22;40521;53.146;6.556;2022-12-18T04:31:44;-6.40;99.90
54622;DHT22;40521;53.146;6.556;2022-12-18T04:34:09;-6.30;99.90
54622;DHT22;40521;53.146;6.556;2022-12-18T04:36:35;-6.40;99.90
54622;DHT22;40521;53.146;6.556;2022-12-18T04:39:01;-6.30;99.90
54622;DHT22;40521;53.146;6.556;2022-12-18T04:41:26;-6.40;99.90
54622;DHT22;40521;53.146;6.556;2022-12-18T04:43:52;-6.40;99.90
54622;DHT22;40521;53.146;6.556;2022-12-18T04:46:18;-6.40;99.90
54622;DHT22;40521;53.146;6.556;2022-12-18T04:48:45;-6.40;99.90
54622;DHT22;40521;53.146;6.556;2022-12-18T04:51:10;-6.40;99.90
54622;DHT22;40521;53.146;6.556;2022-12-18T04:53:36;-6.40;99.90
54622;DHT22;40521;53.146;6.556;2022-12-18T04:56:09;-6.50;99.90
54622;DHT22;40521;53.146;6.556;2022-12-18T04:58:35;-6.50;99.90
54622;DHT22;40521;53.146;6.556;2022-12-18T05:01:01;-6.50;99.90
54622;DHT22;40521;53.146;6.556;2022-12-18T05:03:27;-6.50;99.90
54622;DHT22;40521;53.146;6.556;2022-12-18T05:05:53;-6.50;99.90
54622;DHT22;40521;53.146;6.556;2022-12-18T05:08:18;-6.50;99.90
54622;DHT22;40521;53.146;6.556;2022-12-18T05:10:44;-6.60;99.90
54622;DHT22;40521;53.146;6.556;2022-12-18T05:13:10;-6.50;99.90
54622;DHT22;40521;53.146;6.556;2022-12-18T05:15:35;-6.60;99.90
54622;DHT22;40521;53.146;6.556;2022-12-18T05:18:01;-6.60;99.90
54622;DHT22;40521;53.146;6.556;2022-12-18T05:20:28;-6.60;99.90
54622;DHT22;40521;53.146;6.556;2022-12-18T05:22:53;-6.60;99.90
54622;DHT22;40521;53.146;6.556;2022-12-18T05:25:19;-6.60;99.90
54622;DHT22;40521;53.146;6.556;2022-12-18T05:27:45;-6.60;99.90
54622;DHT22;40521;53.146;6.556;2022-12-18T05:30:11;-6.70;99.90
54622;DHT22;40521;53.146;6.556;2022-12-18T05:32:37;-6.60;99.90
54622;DHT22;40521;53.146;6.556;2022-12-18T05:35:04;-6.70;99.90
54622;DHT22;40521;53.146;6.556;2022-12-18T05:39:56;-6.70;99.90
54622;DHT22;40521;53.146;6.556;2022-12-18T05:42:21;-8.30;99.90
54622;DHT22;40521;53.146;6.556;2022-12-18T05:44:47;-6.80;99.90
54622;DHT22;40521;53.146;6.556;2022-12-18T05:47:13;-6.70;99.90
54622;DHT22;40521;53.146;6.556;2022-12-18T05:49:39;-6.70;99.90
54622;DHT22;40521;53.146;6.556;2022-12-18T05:52:04;-6.80;99.90
54622;DHT22;40521;53.146;6.556;2022-12-18T05:54:30;-6.80;99.90
54622;DHT22;40521;53.146;6.556;2022-12-18T05:56:56;-6.80;99.90
54622;DHT22;40521;53.146;6.556;2022-12-18T05:59:22;-6.70;99.90
54622;DHT22;40521;53.146;6.556;2022-12-18T06:01:48;-6.80;99.90
54622;DHT22;40521;53.146;6.556;2022-12-18T06:04:14;-6.90;99.90
54622;DHT22;40521;53.146;6.556;2022-12-18T06:06:40;-6.80;99.90
54622;DHT22;40521;53.146;6.556;2022-12-18T06:09:05;-6.90;99.90
54622;DHT22;40521;53.146;6.556;2022-12-18T06:11:33;-6.90;99.90
54622;DHT22;40521;53.146;6.556;2022-12-18T06:13:59;-7.00;99.90
54622;DHT22;40521;53.146;6.556;2022-12-18T06:16:26;-6.90;99.90
54622;DHT22;40521;53.146;6.556;2022-12-18T06:18:51;-6.90;99.90
54622;DHT22;40521;53.146;6.556;2022-12-18T06:21:17;-6.90;99.90
54622;DHT22;40521;53.146;6.556;2022-12-18T06:23:43;-6.90;99.90
54622;DHT22;40521;53.146;6.556;2022-12-18T06:26:09;-7.00;99.90
54622;DHT22;40521;53.146;6.556;2022-12-18T06:28:35;-7.00;99.90
54622;DHT22;40521;53.146;6.556;2022-12-18T06:31:02;-7.00;99.90
54622;DHT22;40521;53.146;6.556;2022-12-18T06:33:28;-7.00;99.90
54622;DHT22;40521;53.146;6.556;2022-12-18T06:35:54;-7.00;99.90
54622;DHT22;40521;53.146;6.556;2022-12-18T06:38:19;-7.00;99.90
54622;DHT22;40521;53.146;6.556;2022-12-18T06:40:45;-7.10;99.90
54622;DHT22;40521;53.146;6.556;2022-12-18T06:43:11;-7.10;99.90
54622;DHT22;40521;53.146;6.556;2022-12-18T06:45:36;-7.10;99.90
54622;DHT22;40521;53.146;6.556;2022-12-18T06:48:02;-7.00;99.90
54622;DHT22;40521;53.146;6.556;2022-12-18T06:50:28;-7.00;99.90
54622;DHT22;40521;53.146;6.556;2022-12-18T06:52:53;-7.00;99.90
54622;DHT22;40521;53.146;6.556;2022-12-18T06:55:19;-7.10;99.90
54622;DHT22;40521;53.146;6.556;2022-12-18T07:00:11;-7.20;99.90
54622;DHT22;40521;53.146;6.556;2022-12-18T07:02:37;-7.10;99.90
54622;DHT22;40521;53.146;6.556;2022-12-18T07:05:02;-7.10;99.90
54622;DHT22;40521;53.146;6.556;2022-12-18T07:07:28;-7.10;99.90
54622;DHT22;40521;53.146;6.556;2022-12-18T07:09:54;-7.10;99.90
54622;DHT22;40521;53.146;6.556;2022-12-18T07:12:19;-7.10;99.90
54622;DHT22;40521;53.146;6.556;2022-12-18T07:14:45;-7.00;99.90
54622;DHT22;40521;53.146;6.556;2022-12-18T07:17:10;-7.00;99.90
54622;DHT22;40521;53.146;6.556;2022-12-18T07:19:36;-7.20;99.90
54622;DHT22;40521;53.146;6.556;2022-12-18T07:22:02;-7.10;99.90
54622;DHT22;40521;53.146;6.556;2022-12-18T07:24:28;-7.20;99.90
54622;DHT22;40521;53.146;6.556;2022-12-18T07:26:53;-7.10;99.90
54622;DHT22;40521;53.146;6.556;2022-12-18T07:29:19;-7.10;99.90
54622;DHT22;40521;53.146;6.556;2022-12-18T07:31:45;-7.00;99.90
54622;DHT22;40521;53.146;6.556;2022-12-18T07:34:11;-7.10;99.90
54622;DHT22;40521;53.146;6.556;2022-12-18T07:36:37;-7.00;99.90
54622;DHT22;40521;53.146;6.556;2022-12-18T07:39:03;-7.00;99.90
54622;DHT22;40521;53.146;6.556;2022-12-18T07:43:54;-6.90;99.90
54622;DHT22;40521;53.146;6.556;2022-12-18T07:46:20;-6.90;99.90
54622;DHT22;40521;53.146;6.556;2022-12-18T07:48:46;-7.00;99.90
54622;DHT22;40521;53.146;6.556;2022-12-18T07:51:11;-6.90;99.90
54622;DHT22;40521;53.146;6.556;2022-12-18T07:53:37;-6.90;99.90
54622;DHT22;40521;53.146;6.556;2022-12-18T07:56:05;-7.00;99.90
54622;DHT22;40521;53.146;6.556;2022-12-18T07:58:32;-7.10;99.90
54622;DHT22;40521;53.146;6.556;2022-12-18T08:01:05;-7.00;99.90
54622;DHT22;40521;53.146;6.556;2022-12-18T08:03:31;-7.00;99.90
54622;DHT22;40521;53.146;6.556;2022-12-18T08:06:00;-6.90;99.90
54622;DHT22;40521;53.146;6.556;2022-12-18T08:08:27;-6.90;99.90
54622;DHT22;40521;53.146;6.556;2022-12-18T08:10:53;-6.90;99.90
54622;DHT22;40521;53.146;6.556;2022-12-18T08:13:18;-6.90;99.90
54622;DHT22;40521;53.146;6.556;2022-12-18T08:15:44;-6.70;99.90
54622;DHT22;40521;53.146;6.556;2022-12-18T08:18:10;-6.70;99.90
54622;DHT22;40521;53.146;6.556;2022-12-18T08:20:35;-6.60;99.90
54622;DHT22;40521;53.146;6.556;2022-12-18T08:23:01;-6.50;99.90
54622;DHT22;40521;53.146;6.556;2022-12-18T08:25:27;-6.50;99.90
54622;DHT22;40521;53.146;6.556;2022-12-18T08:27:52;-6.50;99.90
54622;DHT22;40521;53.146;6.556;2022-12-18T08:30:18;-6.50;99.90
54622;DHT22;40521;53.146;6.556;2022-12-18T08:32:43;-6.40;99.90
54622;DHT22;40521;53.146;6.556;2022-12-18T08:35:09;-6.40;99.90
54622;DHT22;40521;53.146;6.556;2022-12-18T08:37:37;-6.40;99.90
54622;DHT22;40521;53.146;6.556;2022-12-18T08:40:02;-6.30;99.90
54622;DHT22;40521;53.146;6.556;2022-12-18T08:42:28;-6.30;99.90
54622;DHT22;40521;53.146;6.556;2022-12-18T08:45:13;-6.40;99.90
54622;DHT22;40521;53.146;6.556;2022-12-18T08:47:38;-6.20;99.90
54622;DHT22;40521;53.146;6.556;2022-12-18T08:50:04;-6.10;99.90
54622;DHT22;40521;53.146;6.556;2022-12-18T08:52:31;-6.10;99.90
54622;DHT22;40521;53.146;6.556;2022-12-18T08:54:57;-6.10;99.90
54622;DHT22;40521;53.146;6.556;2022-12-18T08:57:26;-6.10;99.90
54622;DHT22;40521;53.146;6.556;2022-12-18T08:59:51;-6.00;99.90
54622;DHT22;40521;53.146;6.556;2022-12-18T09:02:17;-5.90;99.90
54622;DHT22;40521;53.146;6.556;2022-12-18T09:04:43;-5.80;99.90
54622;DHT22;40521;53.146;6.556;2022-12-18T09:07:09;-5.90;99.90
54622;DHT22;40521;53.146;6.556;2022-12-18T09:09:35;-5.80;99.90
54622;DHT22;40521;53.146;6.556;2022-12-18T09:12:00;-5.80;99.90
54622;DHT22;40521;53.146;6.556;2022-12-18T09:14:26;-5.90;99.90
54622;DHT22;40521;53.146;6.556;2022-12-18T09:16:52;-5.70;99.90
54622;DHT22;40521;53.146;6.556;2022-12-18T09:19:17;-5.60;99.90
54622;DHT22;40521;53.146;6.556;2022-12-18T09:21:43;-5.60;99.90
54622;DHT22;40521;53.146;6.556;2022-12-18T09:24:11;-5.60;99.90
54622;DHT22;40521;53.146;6.556;2022-12-18T09:26:37;-5.60;99.90
54622;DHT22;40521;53.146;6.556;2022-12-18T09:29:03;-5.60;99.90
54622;DHT22;40521;53.146;6.556;2022-12-18T09:31:28;-5.50;99.90
54622;DHT22;40521;53.146;6.556;2022-12-18T09:33:55;-5.40;99.90
54622;DHT22;40521;53.146;6.556;2022-12-18T09:36:20;-1.40;99.90
54622;DHT22;40521;53.146;6.556;2022-12-18T09:38:46;-5.30;99.90
54622;DHT22;40521;53.146;6.556;2022-12-18T09:44:00;-5.10;99.90
54622;DHT22;40521;53.146;6.556;2022-12-18T09:46:28;-5.10;99.90
54622;DHT22;40521;53.146;6.556;2022-12-18T09:48:55;-1.40;99.90
54622;DHT22;40521;53.146;6.556;2022-12-18T09:51:23;-5.10;99.90
54622;DHT22;40521;53.146;6.556;2022-12-18T09:53:52;-4.60;99.90
54622;DHT22;40521;53.146;6.556;2022-12-18T09:56:19;-2.00;99.90
54622;DHT22;40521;53.146;6.556;2022-12-18T10:01:23;-4.30;99.90
54622;DHT22;40521;53.146;6.556;2022-12-18T10:03:49;-4.90;99.90
54622;DHT22;40521;53.146;6.556;2022-12-18T10:19:55;-5.30;99.90
54622;DHT22;40521;53.146;6.556;2022-12-18T10:22:37;-5.00;99.90
54622;DHT22;40521;53.146;6.556;2022-12-18T10:27:39;-4.90;99.90
54622;DHT22;40521;53.146;6.556;2022-12-18T10:30:15;-4.50;99.90
54622;DHT22;40521;53.146;6.556;2022-12-18T10:32:41;-4.50;99.90
54622;DHT22;40521;53.146;6.556;2022-12-18T10:35:08;-2.60;99.90
54622;DHT22;40521;53.146;6.556;2022-12-18T10:37:36;-4.70;99.90
54622;DHT22;40521;53.146;6.556;2022-12-18T10:40:22;-2.20;99.90
54622;DHT22;40521;53.146;6.556;2022-12-18T10:43:51;-4.80;99.90
54622;DHT22;40521;53.146;6.556;2022-12-18T10:45:43;-4.60;99.90
54622;DHT22;40521;53.146;6.556;2022-12-18T10:48:22;-4.30;99.90
54622;DHT22;40521;53.146;6.556;2022-12-18T10:50:49;-2.20;99.90
54622;DHT22;40521;53.146;6.556;2022-12-18T10:56:06;-4.40;99.90
54622;DHT22;40521;53.146;6.556;2022-12-18T10:58:32;-2.30;99.90
54622;DHT22;40521;53.146;6.556;2022-12-18T11:03:40;-4.30;99.90
54622;DHT22;40521;53.146;6.556;2022-12-18T11:08:32;-3.90;99.90
54622;DHT22;40521;53.146;6.556;2022-12-18T11:10:58;-2.50;99.90
54622;DHT22;40521;53.146;6.556;2022-12-18T11:13:25;-1.50;99.90
54622;DHT22;40521;53.146;6.556;2022-12-18T11:15:51;-1.40;99.90
54622;DHT22;40521;53.146;6.556;2022-12-18T11:18:17;-1.80;99.90
54622;DHT22;40521;53.146;6.556;2022-12-18T11:20:49;-1.40;99.90
54622;DHT22;40521;53.146;6.556;2022-12-18T11:23:15;-1.20;99.90
54622;DHT22;40521;53.146;6.556;2022-12-18T11:25:41;-3.90;99.90
54622;DHT22;40521;53.146;6.556;2022-12-18T11:33:41;-3.60;99.90
54622;DHT22;40521;53.146;6.556;2022-12-18T11:36:08;-3.50;99.90
54622;DHT22;40521;53.146;6.556;2022-12-18T11:38:41;-3.50;99.90
54622;DHT22;40521;53.146;6.556;2022-12-18T11:41:28;-3.50;99.90
54622;DHT22;40521;53.146;6.556;2022-12-18T11:44:14;-3.40;99.90
54622;DHT22;40521;53.146;6.556;2022-12-18T11:46:44;-3.40;99.90
54622;DHT22;40521;53.146;6.556;2022-12-18T11:51:46;-3.50;99.90
54622;DHT22;40521;53.146;6.556;2022-12-18T11:54:14;-3.20;99.90
54622;DHT22;40521;53.146;6.556;2022-12-18T11:56:43;-3.30;99.90
54622;DHT22;40521;53.146;6.556;2022-12-18T12:06:46;-1.70;99.90
54622;DHT22;40521;53.146;6.556;2022-12-18T12:09:27;-3.00;99.90
54622;DHT22;40521;53.146;6.556;2022-12-18T12:14:36;-2.90;99.90
54622;DHT22;40521;53.146;6.556;2022-12-18T12:17:09;-2.90;99.90
54622;DHT22;40521;53.146;6.556;2022-12-18T12:30:05;-2.60;99.90
54622;DHT22;40521;53.146;6.556;2022-12-18T12:40:00;-2.50;99.90
54622;DHT22;40521;53.146;6.556;2022-12-18T12:42:38;-1.50;99.90
54622;DHT22;40521;53.146;6.556;2022-12-18T12:48:01;-2.40;99.90
54622;DHT22;40521;53.146;6.556;2022-12-18T12:50:27;-1.00;99.90
54622;DHT22;40521;53.146;6.556;2022-12-18T12:52:55;-2.30;99.90
54622;DHT22;40521;53.146;6.556;2022-12-18T12:55:22;-0.70;99.90
54622;DHT22;40521;53.146;6.556;2022-12-18T13:00:49;-2.20;99.90
54622;DHT22;40521;53.146;6.556;2022-12-18T13:05:51;-1.10;99.90
54622;DHT22;40521;53.146;6.556;2022-12-18T13:08:22;-2.20;99.90
54622;DHT22;40521;53.146;6.556;2022-12-18T13:10:48;-2.10;99.90
54622;DHT22;40521;53.146;6.556;2022-12-18T13:13:14;-2.10;99.90
54622;DHT22;40521;53.146;6.556;2022-12-18T13:15:45;-0.80;99.90
54622;DHT22;40521;53.146;6.556;2022-12-18T13:18:13;-2.00;99.90
54622;DHT22;40521;53.146;6.556;2022-12-18T13:25:51;-1.90;99.90
54622;DHT22;40521;53.146;6.556;2022-12-18T13:28:18;0.20;99.90
54622;DHT22;40521;53.146;6.556;2022-12-18T13:30:50;-0.10;99.90
54622;DHT22;40521;53.146;6.556;2022-12-18T13:38:23;-0.50;99.90
54622;DHT22;40521;53.146;6.556;2022-12-18T13:45:46;-3.00;99.90
54622;DHT22;40521;53.146;6.556;2022-12-18T13:48:21;0.10;99.90
54622;DHT22;40521;53.146;6.556;2022-12-18T13:50:57;-1.90;99.90
54622;DHT22;40521;53.146;6.556;2022-12-18T13:53:26;-1.80;99.90
54622;DHT22;40521;53.146;6.556;2022-12-18T13:55:52;-0.80;99.90
54622;DHT22;40521;53.146;6.556;2022-12-18T13:58:18;-1.80;99.90
54622;DHT22;40521;53.146;6.556;2022-12-18T14:00:44;-1.80;99.90
54622;DHT22;40521;53.146;6.556;2022-12-18T14:03:20;-0.60;99.90
54622;DHT22;40521;53.146;6.556;2022-12-18T14:05:46;-1.80;99.90
54622;DHT22;40521;53.146;6.556;2022-12-18T14:08:17;-0.70;99.90
54622;DHT22;40521;53.146;6.556;2022-12-18T14:10:44;-0.20;99.90
54622;DHT22;40521;53.146;6.556;2022-12-18T14:13:10;0.50;99.90
54622;DHT22;40521;53.146;6.556;2022-12-18T14:15:39;-0.30;99.90
54622;DHT22;40521;53.146;6.556;2022-12-18T14:18:22;-1.60;99.90
54622;DHT22;40521;53.146;6.556;2022-12-18T14:20:49;-1.80;99.90
54622;DHT22;40521;53.146;6.556;2022-12-18T14:23:29;-1.80;99.90
54622;DHT22;40521;53.146;6.556;2022-12-18T14:25:55;-1.80;99.90
54622;DHT22;40521;53.146;6.556;2022-12-18T14:28:20;-1.80;99.90
54622;DHT22;40521;53.146;6.556;2022-12-18T14:30:49;-1.80;99.90
54622;DHT22;40521;53.146;6.556;2022-12-18T14:33:16;0.00;99.90
54622;DHT22;40521;53.146;6.556;2022-12-18T14:35:54;0.00;99.90
54622;DHT22;40521;53.146;6.556;2022-12-18T14:38:28;-1.90;99.90
54622;DHT22;40521;53.146;6.556;2022-12-18T14:40:58;-1.90;99.90
54622;DHT22;40521;53.146;6.556;2022-12-18T14:43:24;-2.00;99.90
54622;DHT22;40521;53.146;6.556;2022-12-18T14:45:50;-2.00;99.90
54622;DHT22;40521;53.146;6.556;2022-12-18T14:50:45;-2.00;99.90
54622;DHT22;40521;53.146;6.556;2022-12-18T14:53:20;-2.00;99.90
54622;DHT22;40521;53.146;6.556;2022-12-18T14:55:48;-2.00;99.90
54622;DHT22;40521;53.146;6.556;2022-12-18T14:58:14;-2.00;99.90
54622;DHT22;40521;53.146;6.556;2022-12-18T15:00:41;-2.00;99.90
54622;DHT22;40521;53.146;6.556;2022-12-18T15:03:07;-2.00;99.90
54622;DHT22;40521;53.146;6.556;2022-12-18T15:05:33;-2.10;99.90
54622;DHT22;40521;53.146;6.556;2022-12-18T15:08:00;-0.20;99.90
54622;DHT22;40521;53.146;6.556;2022-12-18T15:10:26;0.00;99.90
54622;DHT22;40521;53.146;6.556;2022-12-18T15:23:16;-2.20;99.90
54622;DHT22;40521;53.146;6.556;2022-12-18T15:25:42;-2.20;99.90
54622;DHT22;40521;53.146;6.556;2022-12-18T15:33:39;-2.30;99.90
54622;DHT22;40521;53.146;6.556;2022-12-18T15:36:07;-0.40;99.90
54622;DHT22;40521;53.146;6.556;2022-12-18T15:38:33;-2.30;99.90
54622;DHT22;40521;53.146;6.556;2022-12-18T15:40:59;-0.60;99.90
54622;DHT22;40521;53.146;6.556;2022-12-18T15:43:25;-0.50;99.90
54622;DHT22;40521;53.146;6.556;2022-12-18T15:46:00;-2.50;99.90
54622;DHT22;40521;53.146;6.556;2022-12-18T15:48:26;-0.80;99.90
54622;DHT22;40521;53.146;6.556;2022-12-18T15:50:52;-2.40;99.90
54622;DHT22;40521;53.146;6.556;2022-12-18T15:53:19;-0.50;99.90
54622;DHT22;40521;53.146;6.556;2022-12-18T15:55:44;-2.30;99.90
54622;DHT22;40521;53.146;6.556;2022-12-18T15:58:29;-2.40;99.90
54622;DHT22;40521;53.146;6.556;2022-12-18T16:00:55;-1.50;99.90
54622;DHT22;40521;53.146;6.556;2022-12-18T16:03:21;-1.00;99.90
54622;DHT22;40521;53.146;6.556;2022-12-18T16:05:47;-0.20;99.90
54622;DHT22;40521;53.146;6.556;2022-12-18T16:08:12;-0.30;99.90
54622;DHT22;40521;53.146;6.556;2022-12-18T16:10:38;-0.30;99.90
54622;DHT22;40521;53.146;6.556;2022-12-18T16:13:04;-2.50;99.90
54622;DHT22;40521;53.146;6.556;2022-12-18T16:15:29;-2.50;99.90
54622;DHT22;40521;53.146;6.556;2022-12-18T16:17:55;-2.60;99.90
54622;DHT22;40521;53.146;6.556;2022-12-18T16:20:21;-0.50;99.90
54622;DHT22;40521;53.146;6.556;2022-12-18T16:22:47;-2.00;99.90
54622;DHT22;40521;53.146;6.556;2022-12-18T16:25:18;-0.80;99.90
54622;DHT22;40521;53.146;6.556;2022-12-18T16:27:48;-2.50;99.90
54622;DHT22;40521;53.146;6.556;2022-12-18T16:30:24;-2.50;99.90
54622;DHT22;40521;53.146;6.556;2022-12-18T16:32:50;-2.50;99.90
54622;DHT22;40521;53.146;6.556;2022-12-18T16:35:16;-0.70;99.90
54622;DHT22;40521;53.146;6.556;2022-12-18T16:37:42;-2.50;99.90
54622;DHT22;40521;53.146;6.556;2022-12-18T16:40:09;-0.40;99.90
54622;DHT22;40521;53.146;6.556;2022-12-18T16:42:35;-2.50;99.90
54622;DHT22;40521;53.146;6.556;2022-12-18T16:45:02;-0.60;99.90
54622;DHT22;40521;53.146;6.556;2022-12-18T16:47:28;-2.40;99.90
54622;DHT22;40521;53.146;6.556;2022-12-18T16:49:54;-2.50;99.90
54622;DHT22;40521;53.146;6.556;2022-12-18T16:52:19;-2.10;99.90
54622;DHT22;40521;53.146;6.556;2022-12-18T16:54:45;-0.80;99.90
54622;DHT22;40521;53.146;6.556;2022-12-18T16:57:15;-2.40;99.90
54622;DHT22;40521;53.146;6.556;2022-12-18T16:59:41;-2.40;99.90
54622;DHT22;40521;53.146;6.556;2022-12-18T17:02:13;-2.20;99.90
54622;DHT22;40521;53.146;6.556;2022-12-18T17:04:40;-2.30;99.90
54622;DHT22;40521;53.146;6.556;2022-12-18T17:07:06;-0.70;99.90
54622;DHT22;40521;53.146;6.556;2022-12-18T17:09:32;-2.20;99.90
54622;DHT22;40521;53.146;6.556;2022-12-18T17:11:57;-2.30;99.90
54622;DHT22;40521;53.146;6.556;2022-12-18T17:14:24;-0.60;99.90
54622;DHT22;40521;53.146;6.556;2022-12-18T17:16:51;-1.10;99.90
54622;DHT22;40521;53.146;6.556;2022-12-18T17:19:16;-2.20;99.90
54622;DHT22;40521;53.146;6.556;2022-12-18T17:21:42;-0.30;99.90
54622;DHT22;40521;53.146;6.556;2022-12-18T17:24:08;-2.30;99.90
54622;DHT22;40521;53.146;6.556;2022-12-18T17:26:34;-2.20;99.90
54622;DHT22;40521;53.146;6.556;2022-12-18T17:29:00;0.00;99.90
54622;DHT22;40521;53.146;6.556;2022-12-18T17:31:27;0.00;99.90
54622;DHT22;40521;53.146;6.556;2022-12-18T17:33:53;-0.40;99.90
54622;DHT22;40521;53.146;6.556;2022-12-18T17:36:18;-0.10;99.90
54622;DHT22;40521;53.146;6.556;2022-12-18T17:38:51;-0.20;99.90
54622;DHT22;40521;53.146;6.556;2022-12-18T17:41:17;-2.10;99.90
54622;DHT22;40521;53.146;6.556;2022-12-18T17:43:42;-2.10;99.90
54622;DHT22;40521;53.146;6.556;2022-12-18T17:46:11;0.00;99.90
54622;DHT22;40521;53.146;6.556;2022-12-18T17:48:37;0.20;99.90
54622;DHT22;40521;53.146;6.556;2022-12-18T17:51:03;-0.50;99.90
54622;DHT22;40521;53.146;6.556;2022-12-18T17:53:30;-2.00;99.90
54622;DHT22;40521;53.146;6.556;2022-12-18T17:55:56;-2.00;99.90
54622;DHT22;40521;53.146;6.556;2022-12-18T17:58:22;-0.60;99.90
54622;DHT22;40521;53.146;6.556;2022-12-18T18:00:48;-2.00;99.90
54622;DHT22;40521;53.146;6.556;2022-12-18T18:03:13;-2.00;99.90